Time;durP1;ratioP1;P1;durP2;ratioP2;P2;SDS_P1;SDS_P2;PMS_P1;PMS_P2;Temp;Humidity;BMP_temperature;BMP_pressure;BME280_temperature;BME280_humidity;BME280_pressure;Samples;Min_cycle;Max_cycle;Signal;HPM_P1;HPM_P2
2021/03/03 00:00:49;;;;;;;7.73;3.41;;;;;;;2.46;72.44;100142.12;340478;116;1962008;-70
2021/03/03 00:01:58;;;;;;;8.66;3.73;;;;;;;2.46;72.59;100136.78;296409;116;2132344;-70
2021/03/03 00:03:03;;;;;;;10.11;5.06;;;;;;;2.43;72.56;100129.91;347964;116;1962047;-71
2021/03/03 00:04:09;;;;;;;7.52;3.72;;;;;;;2.40;72.77;100133.70;316860;116;2503868;-71
2021/03/03 00:05:14;;;;;;;9.18;4.06;;;;;;;2.38;72.91;100140.16;307789;116;1962989;-70
2021/03/03 00:06:21;;;;;;;7.64;3.57;;;;;;;2.37;72.84;100141.15;348049;116;1963919;-71
2021/03/03 00:07:26;;;;;;;7.54;3.09;;;;;;;2.35;72.88;100141.28;346231;116;1961921;-71
2021/03/03 00:08:32;;;;;;;7.50;3.18;;;;;;;2.37;72.80;100149.98;340178;119;1962024;-70
2021/03/03 00:09:38;;;;;;;7.59;3.64;;;;;;;2.38;72.79;100145.48;323704;116;2429953;-70
2021/03/03 00:10:45;;;;;;;8.82;3.91;;;;;;;2.37;72.80;100138.48;346922;116;1962010;-71
2021/03/03 00:11:52;;;;;;;7.58;3.24;;;;;;;2.36;72.70;100132.31;348051;114;1965010;-70
2021/03/03 00:12:59;;;;;;;9.38;3.57;;;;;;;2.31;72.97;100145.22;342955;117;1964211;-71
2021/03/03 00:14:04;;;;;;;7.61;3.65;;;;;;;2.33;72.93;100151.27;343415;117;1962033;-71
2021/03/03 00:15:11;;;;;;;10.04;4.20;;;;;;;2.33;72.88;100143.27;344893;117;1962944;-70
2021/03/03 00:16:16;;;;;;;8.28;3.87;;;;;;;2.30;73.02;100159.55;347337;116;1961997;-71
2021/03/03 00:17:22;;;;;;;6.81;3.61;;;;;;;2.31;73.00;100149.72;323511;118;2271021;-71
2021/03/03 00:18:28;;;;;;;10.75;4.33;;;;;;;2.24;73.22;100143.27;332723;116;1962132;-70
2021/03/03 00:19:33;;;;;;;7.89;3.43;;;;;;;2.26;72.96;100147.47;343892;117;1962907;-71
2021/03/03 00:20:39;;;;;;;10.49;3.95;;;;;;;2.26;73.21;100151.97;346614;116;1960605;-71
2021/03/03 00:21:45;;;;;;;9.69;4.18;;;;;;;2.23;73.35;100158.41;347485;116;1963041;-70
2021/03/03 00:22:52;;;;;;;8.36;4.03;;;;;;;2.25;73.24;100144.93;304166;115;2758008;-71
2021/03/03 00:23:58;;;;;;;8.13;3.21;;;;;;;2.20;73.23;100158.70;343901;117;1961999;-70
2021/03/03 00:25:04;;;;;;;8.54;3.70;;;;;;;2.09;73.85;100157.02;349795;116;1964880;-71
2021/03/03 00:26:11;;;;;;;6.53;3.15;;;;;;;2.09;73.76;100162.34;314783;116;2566041;-71
2021/03/03 00:27:16;;;;;;;7.92;3.71;;;;;;;2.16;73.46;100154.62;322713;116;1961997;-70
2021/03/03 00:28:22;;;;;;;8.11;3.60;;;;;;;2.15;73.47;100159.11;346992;116;1961967;-70
2021/03/03 00:29:27;;;;;;;8.34;3.76;;;;;;;2.14;73.59;100164.56;348463;116;1963940;-70
2021/03/03 00:30:33;;;;;;;7.25;3.62;;;;;;;2.12;73.67;100155.89;345167;116;1962001;-71
2021/03/03 00:31:38;;;;;;;9.34;3.86;;;;;;;2.14;73.38;100162.77;346446;117;1962050;-70
2021/03/03 00:32:44;;;;;;;9.24;3.61;;;;;;;2.15;73.33;100164.44;347251;116;1961986;-70
2021/03/03 00:33:50;;;;;;;7.49;3.29;;;;;;;2.11;73.37;100162.19;330293;117;2228953;-71
2021/03/03 00:34:55;;;;;;;7.88;3.79;;;;;;;2.09;73.52;100157.02;337199;116;1961876;-70
2021/03/03 00:36:01;;;;;;;9.12;3.67;;;;;;;2.14;73.26;100161.91;343168;117;1961953;-71
2021/03/03 00:37:06;;;;;;;7.71;3.74;;;;;;;2.10;73.40;100160.52;348316;116;1962042;-70
2021/03/03 00:38:11;;;;;;;6.99;3.36;;;;;;;2.08;73.53;100155.31;344828;117;1962932;-71
2021/03/03 00:39:16;;;;;;;9.36;3.47;;;;;;;2.01;73.83;100156.00;344788;117;1963931;-71
2021/03/03 00:40:23;;;;;;;7.98;3.32;;;;;;;2.02;73.87;100160.38;348473;116;1961973;-70
2021/03/03 00:41:29;;;;;;;8.07;3.74;;;;;;;1.97;74.06;100158.11;309519;115;2609046;-70
2021/03/03 00:42:34;;;;;;;7.56;3.72;;;;;;;1.97;74.11;100158.11;332731;111;1962172;-70
2021/03/03 00:43:40;;;;;;;8.38;4.08;;;;;;;1.96;74.15;100154.61;346871;114;1961920;-72
2021/03/03 00:44:45;;;;;;;7.82;3.66;;;;;;;2.02;74.05;100163.03;348434;114;1961980;-71
2021/03/03 00:45:51;;;;;;;7.73;3.73;;;;;;;2.03;73.97;100160.22;346372;114;1961903;-71
2021/03/03 00:46:57;;;;;;;10.38;4.48;;;;;;;2.09;73.68;100161.48;346076;114;1962007;-71
2021/03/03 00:48:04;;;;;;;7.38;3.67;;;;;;;2.09;73.69;100156.15;284291;116;2214195;-71
2021/03/03 00:49:09;;;;;;;7.60;3.32;;;;;;;2.08;73.75;100162.47;341526;116;1961950;-71
2021/03/03 00:50:17;;;;;;;6.92;3.52;;;;;;;2.11;73.74;100163.02;347244;114;1964900;-71
2021/03/03 00:51:24;;;;;;;7.92;3.84;;;;;;;2.08;73.77;100163.30;349457;114;1963925;-72
2021/03/03 00:52:29;;;;;;;8.19;3.31;;;;;;;2.12;73.73;100154.06;344769;117;1962955;-71
2021/03/03 00:53:35;;;;;;;8.82;3.82;;;;;;;2.16;73.57;100151.95;341438;115;1961941;-71
2021/03/03 00:54:42;;;;;;;8.11;3.59;;;;;;;2.17;73.53;100158.95;347254;114;1963944;-71
2021/03/03 00:55:52;;;;;;;8.44;3.52;;;;;;;2.19;73.35;100163.16;342463;115;1961983;-71
2021/03/03 00:57:01;;;;;;;7.52;3.24;;;;;;;2.20;73.32;100153.38;342727;115;1961957;-71
2021/03/03 00:58:18;;;;;;;7.86;3.38;;;;;;;2.17;73.16;100157.16;313563;114;2586046;-71
2021/03/03 00:59:26;;;;;;;10.71;4.58;;;;;;;2.15;73.39;100168.94;352036;114;1963992;-71
2021/03/03 01:00:35;;;;;;;9.36;3.32;;;;;;;2.06;73.65;100159.09;351517;114;1962947;-71
2021/03/03 01:01:42;;;;;;;6.59;3.24;;;;;;;2.07;73.58;100163.46;327975;114;1962012;-71
2021/03/03 01:02:48;;;;;;;7.53;3.24;;;;;;;2.06;73.58;100165.27;351583;114;1962033;-71
2021/03/03 01:03:55;;;;;;;8.11;3.38;;;;;;;2.05;73.63;100162.75;350950;114;1962010;-70
2021/03/03 01:05:02;;;;;;;7.22;3.19;;;;;;;2.00;73.87;100162.33;351964;114;1962023;-70
2021/03/03 01:06:21;;;;;;;7.24;3.35;;;;;;;2.05;73.43;100168.92;352228;113;1961933;-71
2021/03/03 01:07:28;;;;;;;7.26;3.06;;;;;;;2.04;73.55;100171.70;355933;111;1961918;-69
2021/03/03 01:08:33;;;;;;;7.14;3.33;;;;;;;2.04;73.53;100172.58;352344;113;1962005;-71
2021/03/03 01:09:39;;;;;;;8.44;3.52;;;;;;;2.04;73.53;100169.91;346995;115;1961924;-70
2021/03/03 01:10:45;;;;;;;6.05;3.11;;;;;;;2.01;73.67;100170.16;324882;111;1961961;-70
2021/03/03 01:11:52;;;;;;;7.59;3.43;;;;;;;1.98;73.57;100170.45;354575;111;1962019;-70
2021/03/03 01:13:00;;;;;;;9.05;3.74;;;;;;;1.96;73.67;100167.94;339739;111;2945989;-69
2021/03/03 01:14:06;;;;;;;7.53;3.71;;;;;;;1.96;73.77;100172.43;353760;111;1961996;-71
2021/03/03 01:15:12;;;;;;;7.42;3.44;;;;;;;1.92;73.92;100174.50;354068;113;1961919;-70
2021/03/03 01:16:19;;;;;;;7.07;3.30;;;;;;;1.91;73.88;100167.51;326271;111;2492041;-71
2021/03/03 01:17:26;;;;;;;7.27;3.24;;;;;;;1.85;74.32;100172.52;356146;111;1963019;-70
2021/03/03 01:18:33;;;;;;;7.06;2.80;;;;;;;1.94;74.01;100175.22;355926;111;1962004;-70
2021/03/03 01:19:39;;;;;;;8.89;3.84;;;;;;;1.93;73.82;100170.88;326195;111;1961940;-70
2021/03/03 01:20:45;;;;;;;7.49;2.84;;;;;;;1.92;73.84;100177.17;355969;111;1962020;-70
2021/03/03 01:21:51;;;;;;;7.76;3.61;;;;;;;1.88;73.99;100169.58;347753;114;1960836;-70
2021/03/03 01:22:58;;;;;;;7.67;3.13;;;;;;;1.86;74.14;100179.55;357284;111;1960634;-71
2021/03/03 01:24:04;;;;;;;6.19;2.84;;;;;;;1.87;74.00;100168.75;337777;111;1960827;-71
2021/03/03 01:25:11;;;;;;;7.61;3.32;;;;;;;1.86;74.12;100176.89;355925;111;1960885;-72
2021/03/03 01:26:17;;;;;;;6.12;2.83;;;;;;;1.81;74.43;100193.28;355685;111;1960871;-71
2021/03/03 01:27:23;;;;;;;7.09;3.55;;;;;;;1.84;74.26;100182.34;309678;110;2845936;-71
2021/03/03 01:28:28;;;;;;;8.77;3.57;;;;;;;1.83;74.14;100178.01;324472;110;1962911;-70
2021/03/03 01:29:33;;;;;;;8.64;3.66;;;;;;;1.87;74.04;100179.41;351520;111;1961603;-70
2021/03/03 01:30:39;;;;;;;7.33;3.01;;;;;;;1.85;74.03;100178.69;357838;111;1959854;-71
2021/03/03 01:31:44;;;;;;;8.23;3.41;;;;;;;1.84;74.27;100179.68;356585;111;1960713;-71
2021/03/03 01:32:50;;;;;;;7.77;3.41;;;;;;;1.83;74.03;100175.34;355773;110;1960575;-70
2021/03/03 01:33:56;;;;;;;6.74;3.22;;;;;;;1.81;74.25;100176.46;356598;110;1959730;-71
2021/03/03 01:35:03;;;;;;;8.38;3.64;;;;;;;1.79;74.29;100175.75;322553;110;2605773;-71
2021/03/03 01:36:09;;;;;;;6.69;3.32;;;;;;;1.73;74.64;100185.97;356957;111;1960855;-70
2021/03/03 01:37:14;;;;;;;9.42;3.78;;;;;;;1.74;74.66;100186.80;358690;111;1960743;-70
2021/03/03 01:38:19;;;;;;;8.01;3.18;;;;;;;1.76;74.47;100180.36;358783;111;1960655;-70
2021/03/03 01:39:26;;;;;;;7.36;3.20;;;;;;;1.74;74.64;100184.14;327991;110;2496811;-70
2021/03/03 01:40:33;;;;;;;6.56;3.19;;;;;;;1.70;74.80;100183.58;355566;111;1960743;-71
2021/03/03 01:41:39;;;;;;;6.81;3.01;;;;;;;1.75;74.53;100185.84;357038;111;1960892;-71
2021/03/03 01:42:45;;;;;;;7.39;3.14;;;;;;;1.78;74.39;100193.56;357631;111;1960685;-71
2021/03/03 01:43:52;;;;;;;9.02;4.14;;;;;;;1.74;74.55;100189.47;321651;111;2607824;-71
2021/03/03 01:44:58;;;;;;;7.03;3.12;;;;;;;1.73;74.47;100179.80;357788;111;1960710;-70
2021/03/03 01:46:03;;;;;;;8.32;3.83;;;;;;;1.68;74.70;100187.36;356726;111;1960824;-70
2021/03/03 01:47:09;;;;;;;7.23;3.55;;;;;;;1.72;74.63;100180.77;359907;111;1960824;-71
2021/03/03 01:48:15;;;;;;;8.22;3.25;;;;;;;1.72;74.63;100192.28;336006;111;2444712;-70
2021/03/03 01:49:20;;;;;;;10.04;3.79;;;;;;;1.71;74.71;100203.06;337314;110;1960878;-71
2021/03/03 01:50:27;;;;;;;6.87;3.36;;;;;;;1.63;74.86;100189.58;358069;110;1960677;-70
2021/03/03 01:51:35;;;;;;;9.40;4.24;;;;;;;1.66;74.88;100199.96;357304;111;1960791;-71
2021/03/03 01:52:41;;;;;;;8.54;3.24;;;;;;;1.70;74.74;100194.23;331709;110;1960739;-70
2021/03/03 01:53:48;;;;;;;8.04;3.26;;;;;;;1.63;74.94;100193.08;357974;112;1960890;-71
2021/03/03 01:54:54;;;;;;;7.34;2.88;;;;;;;1.56;75.33;100186.60;318244;110;2675791;-70
2021/03/03 01:55:59;;;;;;;9.91;3.64;;;;;;;1.64;75.04;100183.27;333613;110;1960769;-70
2021/03/03 01:57:06;;;;;;;7.82;3.85;;;;;;;1.61;75.01;100189.70;359865;110;1960836;-70
2021/03/03 01:58:11;;;;;;;9.86;3.74;;;;;;;1.63;74.87;100186.92;358495;109;1960842;-70
2021/03/03 01:59:16;;;;;;;6.72;3.35;;;;;;;1.64;74.69;100188.59;356429;109;1961864;-71
2021/03/03 02:00:24;;;;;;;6.73;3.04;;;;;;;1.56;74.96;100185.77;312221;111;2067762;-71
2021/03/03 02:01:31;;;;;;;8.07;3.62;;;;;;;1.02;75.13;100106.16;356732;110;1960850;-70
2021/03/03 02:02:37;;;;;;;9.02;3.42;;;;;;;1.55;75.13;100192.92;356418;111;1960799;-71
2021/03/03 02:03:43;;;;;;;8.79;4.07;;;;;;;1.59;75.01;100197.01;323791;110;2599906;-71
2021/03/03 02:04:51;;;;;;;6.81;3.60;;;;;;;1.60;74.91;100188.03;341254;116;1960844;-71
2021/03/03 02:06:00;;;;;;;7.99;3.33;;;;;;;1.66;74.60;100197.30;358521;111;1960857;-71
2021/03/03 02:07:22;;;;;;;10.95;3.55;;;;;;;1.59;74.84;100202.34;355888;110;1960880;-71
2021/03/03 02:08:40;;;;;;;8.04;3.34;;;;;;;1.58;74.81;100197.13;329803;111;1960895;-71
2021/03/03 02:10:04;;;;;;;8.46;3.26;;;;;;;1.57;74.81;100200.78;358811;111;1968729;-72
2021/03/03 02:11:22;;;;;;;9.01;4.43;;;;;;;1.59;74.89;100198.80;358382;110;1960669;-71
2021/03/03 02:12:31;;;;;;;6.13;2.97;;;;;;;1.56;74.87;100201.74;360449;110;1960866;-71
2021/03/03 02:13:41;;;;;;;7.64;3.68;;;;;;;1.57;74.82;100206.11;358730;110;1960743;-71
2021/03/03 02:14:50;;;;;;;6.89;3.31;;;;;;;1.55;74.97;100198.24;314063;110;2082575;-70
2021/03/03 02:15:59;;;;;;;8.81;3.57;;;;;;;1.58;74.88;100213.11;357751;110;1961893;-70
2021/03/03 02:17:07;;;;;;;9.65;4.21;;;;;;;1.63;74.67;100205.56;340808;110;2954995;-72
2021/03/03 02:18:13;;;;;;;7.01;3.08;;;;;;;1.52;75.11;100204.68;358314;111;1962007;-70
2021/03/03 02:19:25;;;;;;;7.88;3.17;;;;;;;1.61;74.67;100202.18;357808;111;1961862;-71
2021/03/03 02:20:35;;;;;;;9.67;3.62;;;;;;;1.60;74.63;100208.50;359999;110;1963963;-70
2021/03/03 02:21:45;;;;;;;6.87;3.34;;;;;;;1.57;74.64;100214.94;322682;111;1962011;-70
2021/03/03 02:23:12;;;;;;;8.22;3.50;;;;;;;1.47;75.17;100209.56;346556;111;1960986;-70
2021/03/03 02:24:27;;;;;;;8.72;3.67;;;;;;;1.50;74.99;100211.11;359488;111;1961940;-71
2021/03/03 02:25:34;;;;;;;7.18;3.43;;;;;;;1.46;75.16;100228.35;356422;111;1961058;-70
2021/03/03 02:26:41;;;;;;;7.79;3.56;;;;;;;1.44;75.30;100219.64;303597;110;2243056;-71
2021/03/03 02:27:48;;;;;;;7.95;3.21;;;;;;;1.42;75.39;100217.11;358850;110;1961909;-71
2021/03/03 02:28:56;;;;;;;7.84;2.83;;;;;;;1.45;75.43;100216.83;314093;113;2627026;-71
2021/03/03 02:30:05;;;;;;;7.98;3.23;;;;;;;1.51;75.07;100216.32;313507;113;2648987;-71
2021/03/03 02:31:13;;;;;;;7.43;3.28;;;;;;;1.51;75.08;100223.47;359492;110;1961908;-70
2021/03/03 02:32:19;;;;;;;6.93;3.18;;;;;;;1.53;74.97;100219.70;346300;110;1961960;-70
2021/03/03 02:33:26;;;;;;;9.59;4.16;;;;;;;1.52;75.13;100220.66;357294;110;1961905;-71
2021/03/03 02:34:32;;;;;;;8.06;3.40;;;;;;;1.58;74.83;100227.26;357368;111;1961970;-70
2021/03/03 02:35:40;;;;;;;7.84;3.64;;;;;;;1.60;74.76;100237.79;323785;110;2608012;-70
2021/03/03 02:36:50;;;;;;;7.68;3.33;;;;;;;1.52;75.04;100225.98;310573;115;2637994;-70
2021/03/03 02:38:00;;;;;;;7.28;3.41;;;;;;;1.58;74.77;100231.75;347669;113;1961884;-71
2021/03/03 02:39:06;;;;;;;7.89;3.46;;;;;;;1.54;74.71;100226.70;357770;110;1961889;-71
2021/03/03 02:40:27;;;;;;;8.97;3.24;;;;;;;1.58;74.78;100237.91;357249;111;1961946;-71
2021/03/03 02:41:34;;;;;;;6.71;3.13;;;;;;;1.59;74.75;100236.95;320489;112;1961913;-70
2021/03/03 02:42:42;;;;;;;5.02;2.69;;;;;;;1.66;74.44;100234.58;351671;113;1962975;-70
2021/03/03 02:43:49;;;;;;;6.32;3.14;;;;;;;1.65;74.38;100232.91;337033;114;1961970;-70
2021/03/03 02:44:54;;;;;;;8.77;3.91;;;;;;;1.59;74.58;100236.95;355192;112;1962058;-70
2021/03/03 02:46:01;;;;;;;7.10;3.66;;;;;;;1.60;74.51;100235.96;355261;112;1964931;-70
2021/03/03 02:47:07;;;;;;;7.51;2.84;;;;;;;1.66;74.29;100246.06;326128;112;1962003;-70
2021/03/03 02:48:15;;;;;;;8.18;3.37;;;;;;;1.65;74.19;100244.39;354642;112;1961938;-70
2021/03/03 02:49:22;;;;;;;6.24;3.17;;;;;;;1.63;74.40;100241.02;299591;112;2175596;-70
2021/03/03 02:50:28;;;;;;;5.86;3.11;;;;;;;1.65;74.26;100243.56;354324;112;1962956;-70
2021/03/03 02:51:33;;;;;;;7.03;3.06;;;;;;;1.64;74.32;100250.71;347071;114;1962987;-70
2021/03/03 02:52:55;;;;;;;8.80;3.45;;;;;;;1.65;74.19;100248.88;353685;112;1962012;-69
2021/03/03 02:54:02;;;;;;;7.48;2.96;;;;;;;1.63;74.40;100253.49;352908;112;1961984;-71
2021/03/03 02:55:08;;;;;;;7.19;2.81;;;;;;;1.62;74.33;100252.66;355151;106;1962054;-69
2021/03/03 02:56:15;;;;;;;6.82;3.05;;;;;;;1.67;74.13;100245.11;360949;110;1963041;-71
2021/03/03 02:57:21;;;;;;;5.86;2.67;;;;;;;1.65;74.22;100251.55;333783;110;1961953;-71
2021/03/03 02:58:26;;;;;;;7.01;3.18;;;;;;;1.64;74.34;100252.50;354921;111;1962007;-71
2021/03/03 02:59:41;;;;;;;7.54;3.31;;;;;;;1.70;73.97;100263.48;351792;113;1961979;-70
2021/03/03 03:00:48;;;;;;;7.57;3.56;;;;;;;1.66;73.99;100254.05;351201;113;1961948;-71
2021/03/03 03:01:57;;;;;;;6.48;2.91;;;;;;;1.67;73.90;100253.10;351881;113;1964016;-71
2021/03/03 03:03:22;;;;;;;7.06;2.86;;;;;;;1.66;74.05;100256.72;351534;113;1961966;-69
2021/03/03 03:04:31;;;;;;;6.39;3.04;;;;;;;1.57;74.32;100259.36;352518;112;1962045;-71
2021/03/03 03:05:39;;;;;;;7.70;3.27;;;;;;;1.57;74.36;100256.70;352307;113;1962016;-70
2021/03/03 03:06:45;;;;;;;7.00;3.11;;;;;;;1.58;74.21;100255.71;348729;113;1962026;-70
2021/03/03 03:07:54;;;;;;;6.27;2.63;;;;;;;1.62;74.08;100262.47;352092;113;1962993;-69
2021/03/03 03:09:04;;;;;;;5.59;2.91;;;;;;;1.62;74.04;100259.81;353256;113;1962031;-71
2021/03/03 03:10:13;;;;;;;6.40;3.38;;;;;;;1.62;73.97;100257.14;351703;113;1962002;-70
2021/03/03 03:11:25;;;;;;;8.12;3.01;;;;;;;1.61;73.91;100253.61;336765;113;1962068;-70
2021/03/03 03:12:31;;;;;;;6.81;2.83;;;;;;;1.61;73.86;100266.09;351526;113;1961992;-70
2021/03/03 03:13:40;;;;;;;7.09;3.28;;;;;;;1.61;73.83;100269.59;325541;113;2475915;-70
2021/03/03 03:14:50;;;;;;;7.19;2.89;;;;;;;1.60;73.89;100256.43;355224;113;1962045;-70
2021/03/03 03:15:58;;;;;;;6.63;3.43;;;;;;;1.61;73.87;100268.75;350825;113;1961888;-70
2021/03/03 03:17:07;;;;;;;7.86;3.11;;;;;;;1.63;73.75;100274.80;355263;112;1965020;-70
2021/03/03 03:18:18;;;;;;;7.92;2.82;;;;;;;1.60;73.82;100267.91;351590;113;1961959;-71
2021/03/03 03:19:33;;;;;;;6.96;2.83;;;;;;;1.63;73.75;100269.47;351661;113;1961930;-70
2021/03/03 03:20:41;;;;;;;7.52;3.24;;;;;;;1.56;73.99;100276.30;353299;113;1961981;-71
2021/03/03 03:21:50;;;;;;;9.01;3.54;;;;;;;1.61;73.77;100268.75;352345;113;1962044;-71
2021/03/03 03:22:58;;;;;;;8.14;3.12;;;;;;;1.37;74.16;100256.59;316506;113;2679032;-70
2021/03/03 03:24:06;;;;;;;5.71;4.12;;;;;;;1.54;74.19;100290.59;351292;113;1961944;-70
2021/03/03 03:25:13;;;;;;;8.35;3.39;;;;;;;1.52;74.27;100270.41;334075;113;1961929;-72
2021/03/03 03:26:21;;;;;;;8.03;3.52;;;;;;;1.56;74.09;100268.31;352012;113;1961986;-71
2021/03/03 03:27:28;;;;;;;5.72;2.80;;;;;;;1.56;74.08;100262.98;353124;113;1962009;-70
2021/03/03 03:28:39;;;;;;;8.37;2.82;;;;;;;1.57;73.91;100262.86;353039;113;1961956;-71
2021/03/03 03:29:46;;;;;;;8.79;4.36;;;;;;;1.60;73.86;100270.58;306982;113;2816973;-70
2021/03/03 03:30:54;;;;;;;10.75;5.01;;;;;;;1.55;74.14;100267.47;352142;113;1962004;-70
2021/03/03 03:32:00;;;;;;;9.64;3.57;;;;;;;1.52;74.14;100260.59;341822;113;1962036;-70
2021/03/03 03:33:13;;;;;;;6.56;3.26;;;;;;;1.52;74.10;100263.25;352346;113;1962059;-71
2021/03/03 03:34:20;;;;;;;6.54;3.13;;;;;;;1.50;74.15;100259.88;313957;113;2898954;-71
2021/03/03 03:35:27;;;;;;;7.06;3.24;;;;;;;1.40;74.40;100256.31;352024;113;1961994;-70
2021/03/03 03:36:39;;;;;;;8.30;3.73;;;;;;;1.40;74.52;100271.45;351229;113;1962016;-70
2021/03/03 03:37:44;;;;;;;6.67;3.33;;;;;;;1.35;74.72;100271.88;347483;113;1961901;-70
2021/03/03 03:38:50;;;;;;;6.81;2.81;;;;;;;1.37;74.58;100266.39;348434;115;1961992;-71
2021/03/03 03:39:55;;;;;;;8.46;3.37;;;;;;;1.37;74.52;100253.09;343900;115;1961946;-70
2021/03/03 03:41:02;;;;;;;8.11;2.94;;;;;;;1.35;74.60;100257.69;342686;115;1961892;-70
2021/03/03 03:42:09;;;;;;;8.51;3.46;;;;;;;1.27;75.02;100263.67;323684;113;2503045;-70
2021/03/03 03:43:15;;;;;;;7.27;3.36;;;;;;;1.24;75.27;100267.44;345268;115;1961991;-70
2021/03/03 03:44:23;;;;;;;9.62;3.57;;;;;;;1.26;75.07;100260.17;344658;116;1961943;-70
2021/03/03 03:45:29;;;;;;;7.36;3.82;;;;;;;1.27;74.97;100266.33;343841;116;1962914;-71
2021/03/03 03:46:39;;;;;;;7.47;3.15;;;;;;;1.28;75.02;100257.39;327796;115;2958038;-71
2021/03/03 03:47:45;;;;;;;6.00;3.06;;;;;;;1.22;75.29;100253.44;346804;116;1961957;-70
2021/03/03 03:48:52;;;;;;;6.80;3.13;;;;;;;1.22;75.12;100252.61;299061;116;2846987;-70
2021/03/03 03:50:01;;;;;;;10.27;3.77;;;;;;;1.20;75.21;100252.73;337977;115;1962073;-71
2021/03/03 03:51:07;;;;;;;8.38;3.74;;;;;;;1.18;75.29;100254.66;319971;115;2485938;-71
2021/03/03 03:52:17;;;;;;;8.17;3.88;;;;;;;1.15;75.44;100256.76;343958;116;1961921;-70
2021/03/03 03:53:24;;;;;;;7.23;3.48;;;;;;;1.13;75.43;100259.53;343340;116;1963973;-70
2021/03/03 03:54:30;;;;;;;8.42;3.69;;;;;;;1.09;75.62;100258.13;341097;116;1962897;-69
2021/03/03 03:55:37;;;;;;;7.42;4.02;;;;;;;1.12;75.53;100257.02;311265;115;2611970;-71
2021/03/03 03:56:43;;;;;;;6.07;3.08;;;;;;;1.13;75.25;100267.52;351873;113;1961983;-69
2021/03/03 03:57:52;;;;;;;7.18;3.41;;;;;;;1.04;75.75;100261.17;350104;113;1964013;-70
2021/03/03 03:58:57;;;;;;;9.38;4.41;;;;;;;1.07;75.54;100260.91;354936;113;1961949;-70
2021/03/03 04:00:06;;;;;;;8.84;3.81;;;;;;;1.08;75.41;100262.58;347323;115;1962013;-71
2021/03/03 04:01:13;;;;;;;8.87;4.12;;;;;;;1.02;75.80;100271.09;344554;115;1962058;-70
2021/03/03 04:02:20;;;;;;;7.46;3.54;;;;;;;1.03;75.78;100269.27;305494;116;2737888;-70
2021/03/03 04:03:25;;;;;;;6.51;3.46;;;;;;;0.94;76.29;100270.89;336194;117;1961957;-70
2021/03/03 04:04:31;;;;;;;11.77;3.89;;;;;;;1.00;76.04;100265.05;339551;117;1963050;-70
2021/03/03 04:05:36;;;;;;;7.49;3.84;;;;;;;1.00;76.04;100275.69;347484;115;1961886;-71
2021/03/03 04:06:43;;;;;;;8.02;3.77;;;;;;;1.00;75.92;100269.53;347672;115;1962027;-71
2021/03/03 04:07:50;;;;;;;8.74;3.84;;;;;;;0.96;76.02;100260.14;320027;115;2931008;-70
2021/03/03 04:08:55;;;;;;;8.46;4.23;;;;;;;0.96;76.14;100279.59;343905;115;1963922;-70
2021/03/03 04:10:00;;;;;;;8.64;3.43;;;;;;;0.94;76.02;100265.58;343645;115;1961930;-70
2021/03/03 04:11:05;;;;;;;7.28;3.79;;;;;;;0.93;76.12;100274.54;347259;115;1961964;-70
2021/03/03 04:12:12;;;;;;;9.67;4.40;;;;;;;0.95;75.92;100264.59;350310;113;1961962;-70
2021/03/03 04:13:18;;;;;;;8.49;4.47;;;;;;;0.93;76.14;100278.99;319519;113;2572006;-69
2021/03/03 04:14:24;;;;;;;7.87;4.01;;;;;;;0.90;76.26;100268.61;343186;115;1961969;-70
2021/03/03 04:15:31;;;;;;;7.16;3.66;;;;;;;0.90;76.17;100274.80;335827;117;1964929;-69
2021/03/03 04:16:39;;;;;;;11.29;4.29;;;;;;;0.90;76.19;100274.80;335213;118;1961955;-70
2021/03/03 04:17:44;;;;;;;11.42;4.09;;;;;;;0.90;76.06;100264.16;343268;116;1962002;-70
2021/03/03 04:18:52;;;;;;;8.72;4.22;;;;;;;0.87;76.13;100264.39;327266;113;2417919;-70
2021/03/03 04:19:57;;;;;;;8.34;4.12;;;;;;;0.86;76.21;100273.36;337241;113;1962050;-70
2021/03/03 04:21:03;;;;;;;7.94;4.20;;;;;;;0.88;76.27;100274.08;354577;113;1962026;-70
2021/03/03 04:22:08;;;;;;;8.48;4.18;;;;;;;0.88;76.09;100274.92;352132;113;1962067;-71
2021/03/03 04:23:14;;;;;;;8.24;3.91;;;;;;;0.89;75.91;100278.42;351966;113;1961985;-69
2021/03/03 04:24:20;;;;;;;8.73;4.34;;;;;;;0.89;76.11;100281.08;352060;113;1965002;-70
2021/03/03 04:25:26;;;;;;;8.75;4.53;;;;;;;0.87;76.11;100275.03;320786;113;2564985;-71
2021/03/03 04:26:32;;;;;;;9.23;3.99;;;;;;;0.86;76.00;100279.52;353308;113;1965004;-69
2021/03/03 04:27:37;;;;;;;9.64;4.12;;;;;;;0.80;76.17;100280.04;352033;113;1962006;-71
2021/03/03 04:28:42;;;;;;;9.91;4.43;;;;;;;0.78;76.35;100281.97;355907;113;1963900;-70
2021/03/03 04:29:48;;;;;;;7.36;3.56;;;;;;;0.78;76.07;100279.31;341638;115;1962079;-70
2021/03/03 04:30:55;;;;;;;8.00;3.52;;;;;;;0.76;76.37;100283.08;342608;116;1961991;-71
2021/03/03 04:32:01;;;;;;;7.28;3.89;;;;;;;0.75;76.51;100286.72;343755;116;1961761;-70
2021/03/03 04:33:07;;;;;;;7.16;3.74;;;;;;;0.75;76.58;100281.40;340932;116;1960952;-70
2021/03/03 04:34:13;;;;;;;8.36;3.81;;;;;;;0.78;76.42;100283.80;353540;113;1962938;-70
2021/03/03 04:35:19;;;;;;;7.64;4.03;;;;;;;0.76;76.40;100289.23;306318;113;2823967;-71
2021/03/03 04:36:26;;;;;;;8.83;3.90;;;;;;;0.75;76.33;100295.53;355658;113;1961913;-71
2021/03/03 04:37:31;;;;;;;7.16;3.23;;;;;;;0.71;76.51;100287.93;351953;113;1963969;-70
2021/03/03 04:38:37;;;;;;;7.52;4.45;;;;;;;0.68;76.86;100291.69;354859;113;1962969;-71
2021/03/03 04:39:43;;;;;;;8.19;3.93;;;;;;;0.76;76.51;100293.71;306059;115;2749984;-71
2021/03/03 04:40:48;;;;;;;8.21;3.98;;;;;;;0.74;76.48;100292.98;319633;115;1962916;-71
2021/03/03 04:41:54;;;;;;;9.03;3.74;;;;;;;0.72;76.50;100286.98;335168;106;1960608;-71
2021/03/03 04:42:59;;;;;;;7.12;3.52;;;;;;;0.72;76.44;100292.30;357200;110;1961962;-71
2021/03/03 04:44:05;;;;;;;7.38;3.54;;;;;;;0.68;76.49;100286.36;351261;113;1961976;-71
2021/03/03 04:45:12;;;;;;;8.23;4.10;;;;;;;0.69;76.62;100290.73;349863;113;1963942;-70
2021/03/03 04:46:18;;;;;;;8.10;3.93;;;;;;;0.68;76.69;100296.16;350457;113;1963938;-72
2021/03/03 04:47:24;;;;;;;8.81;3.99;;;;;;;0.67;76.71;100292.66;349982;113;1962997;-70
2021/03/03 04:48:29;;;;;;;9.78;4.63;;;;;;;0.70;76.56;100291.57;355497;111;1963539;-71
2021/03/03 04:49:35;;;;;;;11.04;4.18;;;;;;;0.71;76.53;100299.41;354712;111;1961945;-71
2021/03/03 04:50:49;;;;;;;8.21;3.63;;;;;;;0.71;76.56;100294.09;354481;111;1961908;-72
2021/03/03 04:51:55;;;;;;;7.33;3.32;;;;;;;0.74;76.47;100303.62;356951;111;1961995;-71
2021/03/03 04:53:01;;;;;;;7.58;3.87;;;;;;;0.65;76.62;100314.05;315057;113;2653975;-71
2021/03/03 04:54:06;;;;;;;7.29;3.68;;;;;;;0.60;77.16;100310.09;336341;113;1962076;-71
2021/03/03 04:55:12;;;;;;;8.58;3.46;;;;;;;0.70;76.86;100311.02;350757;113;1961924;-72
2021/03/03 04:56:17;;;;;;;7.74;4.24;;;;;;;0.74;76.54;100311.60;348164;113;1963736;-71
2021/03/03 04:57:23;;;;;;;8.13;4.24;;;;;;;0.71;76.58;100314.52;354355;111;1963981;-71
2021/03/03 04:58:29;;;;;;;8.27;4.46;;;;;;;0.63;76.86;100308.01;355577;111;1962103;-71
2021/03/03 04:59:35;;;;;;;9.51;3.72;;;;;;;0.73;76.80;100321.40;320255;111;2618985;-70
2021/03/03 05:00:41;;;;;;;7.50;3.80;;;;;;;0.62;76.30;100298.36;357927;111;1961976;-71
2021/03/03 05:01:48;;;;;;;9.34;4.89;;;;;;;0.71;76.62;100317.17;347111;116;1961969;-71
2021/03/03 05:02:54;;;;;;;8.82;3.69;;;;;;;0.75;76.51;100321.28;318588;111;2634928;-72
2021/03/03 05:04:02;;;;;;;9.72;4.76;;;;;;;0.64;76.57;100307.06;349177;114;1961964;-71
2021/03/03 05:05:08;;;;;;;9.64;3.92;;;;;;;0.77;76.44;100324.67;356323;111;1961989;-70
2021/03/03 05:06:15;;;;;;;9.15;4.03;;;;;;;0.78;76.18;100324.52;357411;111;1962051;-71
2021/03/03 05:07:20;;;;;;;7.63;3.78;;;;;;;0.62;76.65;100327.60;355853;111;1962973;-71
2021/03/03 05:08:26;;;;;;;8.34;3.78;;;;;;;0.76;76.34;100325.63;356152;111;1961919;-70
2021/03/03 05:09:32;;;;;;;8.08;4.49;;;;;;;0.77;76.34;100327.33;348035;114;1962001;-70